Main page
METAR-TAF:

METAR-TAF

Airports :

Isle of Man Airport

Isle of Man,

latitude: 54-05N, longitude: 004-38W, elevation: 17 m

Current weather observation

The report was made 21 minutes ago, at 05:20 UTC
Wind 15 kt from the East/Southeast
Temperature 11°C
Humidity 71%
Pressure 990 hPa
Visibility 10 km or more
Few clouds at a height of 3000 ft

METAR: EGNS 240520Z 11015KT 9999 FEW030 11/06 Q0990 TEMPO 8000 RA

Time: 06:41 (05:41 UTC)

Forecast

The report was made 41 minutes ago, at 05:00 UTC
Forecast valid from 24 at 06 UTC to 24 at 15 UTC
Wind 15 kt from the East
Visibility 10 km or more
Scattered clouds at a height of 2500 ft
Temporary
from 24 at 06 UTC to 24 at 15 UTC
Visibility: 5000 m
Broken clouds at a height of 1400 ft
rain showers
Probability 40% :
Temporary
from 24 at 07 UTC to 24 at 14 UTC
Visibility: 2000 m
Broken clouds at a height of 800 ft, Cumulonimbus.
heavy rain showers

TAF: EGNS 240500Z 2406/2415 10015KT 9999 SCT025 TEMPO 2406/2415 5000 SHRA BKN014 PROB40 TEMPO 2407/2414 2000 +SHRA BKN008CB

Weather observations and forecasts of more than 4000 airports (METAR and TAF reports).

The available stations are represented by yellow and red dots on the map.

Hover mouse over dot to see the name of the station.

Then click to see weather observations and forecasts.

To change the map : click on the green buttons with a black cross to zoom in, on the green button with a dash to zoom out, or on the green arrows for adjacent maps.


METAR-TAF: